This is the latest recevied weather packets stored in our database for station/object SV2RIM-2. If no packets are shown the sender has not sent any weather packets the latest 10 day(s).
| Time | Temp. | Humidity | Pressure | Rain* | Wind** | Luminosity | Snow |
|---|---|---|---|---|---|---|---|
| 1777023919 | 20° C | 34% | 1014 hPa | - | - | - | - |
| 1777023319 | 20.56° C | 34% | 1014 hPa | - | - | - | - |
| 1777022719 | 20.56° C | 34% | 1014.1 hPa | - | - | - | - |
| 1777022119 | 19.44° C | 36% | 1014.2 hPa | - | - | - | - |
| 1777021519 | 18.33° C | 38% | 1014.2 hPa | - | - | - | - |
| 1777020919 | 19.44° C | 37% | 1014.2 hPa | - | - | - | - |
| 1777020319 | 18.33° C | 38% | 1014.3 hPa | - | - | - | - |
| 1777019719 | 18.89° C | 38% | 1014.4 hPa | - | - | - | - |
| 1777019119 | 18.89° C | 38% | 1014.4 hPa | - | - | - | - |
| 1777018519 | 19.44° C | 36% | 1014.4 hPa | - | - | - | - |
| 1777017919 | 18.33° C | 38% | 1014.5 hPa | - | - | - | - |
| 1777017319 | 17.22° C | 40% | 1014.6 hPa | - | - | - | - |
| 1777016719 | 17.78° C | 39% | 1014.5 hPa | - | - | - | - |
| 1777016119 | 17.22° C | 39% | 1014.5 hPa | - | - | - | - |
| 1777015519 | 17.22° C | 38% | 1014.5 hPa | - | - | - | - |
| 1777014919 | 15.56° C | 42% | 1014.4 hPa | - | - | - | - |
| 1777014319 | 15.56° C | 42% | 1014.4 hPa | - | - | - | - |
| 1777013719 | 15.56° C | 41% | 1014.4 hPa | - | - | - | - |
| 1777013119 | 15.56° C | 41% | 1014.4 hPa | - | - | - | - |
| 1777012519 | 13.89° C | 43% | 1014.4 hPa | - | - | - | - |
| 1777011919 | 13.89° C | 43% | 1014.4 hPa | - | - | - | - |
| 1777011319 | 13.33° C | 44% | 1014.4 hPa | - | - | - | - |
| 1777010719 | 12.78° C | 44% | 1014.4 hPa | - | - | - | - |
| 1777010119 | 12.22° C | 46% | 1014.4 hPa | - | - | - | - |
| 1777009519 | 11.67° C | 46% | 1014.4 hPa | - | - | - | - |
* Rain since midnight (hover to see other rain measurements)
** Current wind speed in m/s (hover to see current wind gust speed)